DAL9571 MNMG-MPTO
Flight info
| Callsign | DAL9571 |
|---|---|
| Flight time | 1h 7m |
| Altitude | 39000 |
| Route | CHILE1 CHILE UA317 BITOR VUMAN2 |
| Aircraft | A339/H-SADE1E2E3GHIJ1J3J5M1P2RWXY/LB2D1 |
Departure
| Time | 2026-04-25 11:50 |
|---|---|
| Airport | Augusto C. Sandino (Managua) International Airport (MNMG) |
Arrival
| Time | 2026-04-25 12:58 |
|---|---|
| Airport | Tocumen International Airport (MPTO) |
| Time | Latitude | Longitude | Altitude | Speed | Heading |
|---|---|---|---|---|---|
| 2026-04-25 11:34 | 12.14386 | -86.17008 | 193 ft | 0 kts | 6° |
| 2026-04-25 11:43 | 12.14373 | -86.17010 | 213 ft | 2 kts | 2° |
| 2026-04-25 11:43 | 12.14358 | -86.17014 | 213 ft | 0 kts | 352° |
| 2026-04-25 11:43 | 12.14350 | -86.17014 | 215 ft | 5 kts | 347° |
| 2026-04-25 11:44 | 12.14321 | -86.16998 | 218 ft | 4 kts | 295° |
| 2026-04-25 11:44 | 12.14312 | -86.16978 | 218 ft | 0 kts | 276° |
| 2026-04-25 11:47 | 12.14313 | -86.16983 | 219 ft | 4 kts | 276° |
| 2026-04-25 11:47 | 12.14320 | -86.17049 | 217 ft | 14 kts | 276° |
| 2026-04-25 11:47 | 12.14338 | -86.17204 | 210 ft | 18 kts | 276° |
| 2026-04-25 11:48 | 12.14352 | -86.17337 | 206 ft | 20 kts | 276° |
| 2026-04-25 11:48 | 12.14363 | -86.17431 | 216 ft | 18 kts | 276° |
| 2026-04-25 11:48 | 12.14377 | -86.17560 | 212 ft | 18 kts | 276° |
| 2026-04-25 11:48 | 12.14390 | -86.17677 | 209 ft | 16 kts | 276° |
| 2026-04-25 11:49 | 12.14385 | -86.17771 | 215 ft | 13 kts | 246° |
| 2026-04-25 11:49 | 12.14340 | -86.17846 | 214 ft | 11 kts | 238° |
| 2026-04-25 11:49 | 12.14296 | -86.17889 | 218 ft | 6 kts | 194° |
| 2026-04-25 11:49 | 12.14276 | -86.17863 | 215 ft | 5 kts | 114° |
| 2026-04-25 11:50 | 12.14268 | -86.17798 | 209 ft | 29 kts | 97° |
| 2026-04-25 11:50 | 12.14203 | -86.17218 | 211 ft | 132 kts | 96° |
| 2026-04-25 11:50 | 12.14077 | -86.16073 | 525 ft | 183 kts | 96° |
| 2026-04-25 11:50 | 12.13938 | -86.14718 | 1286 ft | 197 kts | 96° |
| 2026-04-25 11:51 | 12.13803 | -86.13280 | 2083 ft | 212 kts | 95° |
| 2026-04-25 11:51 | 12.13682 | -86.11698 | 2696 ft | 234 kts | 94° |
| 2026-04-25 11:51 | 12.13553 | -86.09961 | 3279 ft | 255 kts | 94° |
| 2026-04-25 11:51 | 12.13396 | -86.08088 | 3803 ft | 272 kts | 97° |
| 2026-04-25 11:52 | 12.12766 | -86.06248 | 4510 ft | 277 kts | 120° |
| 2026-04-25 11:52 | 12.11718 | -86.04608 | 5286 ft | 281 kts | 126° |
| 2026-04-25 11:52 | 12.10524 | -86.02976 | 6087 ft | 284 kts | 128° |
| 2026-04-25 11:52 | 12.09329 | -86.01379 | 6829 ft | 288 kts | 128° |
| 2026-04-25 11:53 | 12.08123 | -85.99738 | 7619 ft | 289 kts | 127° |
| 2026-04-25 11:53 | 12.06926 | -85.98066 | 8370 ft | 292 kts | 125° |
| 2026-04-25 11:53 | 12.05771 | -85.96353 | 9119 ft | 295 kts | 124° |
| 2026-04-25 11:53 | 12.04617 | -85.94601 | 9904 ft | 297 kts | 123° |
| 2026-04-25 11:54 | 12.03455 | -85.92816 | 10414 ft | 310 kts | 123° |
| 2026-04-25 11:54 | 12.02238 | -85.90939 | 10601 ft | 331 kts | 123° |
| 2026-04-25 11:54 | 11.99575 | -85.86835 | 11419 ft | 354 kts | 123° |
| 2026-04-25 11:55 | 11.98211 | -85.84738 | 12036 ft | 358 kts | 123° |
| 2026-04-25 11:55 | 11.96825 | -85.82606 | 12667 ft | 361 kts | 123° |
| 2026-04-25 11:55 | 11.95423 | -85.80448 | 13287 ft | 365 kts | 123° |
| 2026-04-25 11:55 | 11.94010 | -85.78273 | 13884 ft | 369 kts | 123° |
| 2026-04-25 11:56 | 11.92601 | -85.76107 | 14434 ft | 372 kts | 123° |
| 2026-04-25 11:56 | 11.91161 | -85.73894 | 14981 ft | 375 kts | 123° |
| 2026-04-25 11:56 | 11.89715 | -85.71672 | 15517 ft | 378 kts | 123° |
| 2026-04-25 11:56 | 11.88250 | -85.69423 | 16072 ft | 382 kts | 124° |
| 2026-04-25 11:57 | 11.86770 | -85.67150 | 16598 ft | 384 kts | 124° |
| 2026-04-25 11:57 | 11.85281 | -85.64866 | 17118 ft | 388 kts | 124° |
| 2026-04-25 11:57 | 11.83781 | -85.62564 | 17619 ft | 391 kts | 124° |
| 2026-04-25 11:57 | 11.82266 | -85.60241 | 18128 ft | 394 kts | 124° |
| 2026-04-25 11:58 | 11.80761 | -85.57933 | 18581 ft | 397 kts | 124° |
| 2026-04-25 11:58 | 11.79228 | -85.55582 | 19050 ft | 399 kts | 124° |
| 2026-04-25 11:58 | 11.77683 | -85.53213 | 19517 ft | 401 kts | 124° |
| 2026-04-25 11:58 | 11.76127 | -85.50829 | 19979 ft | 404 kts | 123° |
| 2026-04-25 11:59 | 11.74562 | -85.48433 | 20461 ft | 406 kts | 123° |
| 2026-04-25 11:59 | 11.72984 | -85.46017 | 20917 ft | 409 kts | 123° |
| 2026-04-25 11:59 | 11.71413 | -85.43612 | 21400 ft | 411 kts | 123° |
| 2026-04-25 12:00 | 11.68240 | -85.38756 | 22359 ft | 416 kts | 123° |
| 2026-04-25 12:00 | 11.66622 | -85.36282 | 22836 ft | 419 kts | 123° |
| 2026-04-25 12:00 | 11.63367 | -85.31303 | 23736 ft | 425 kts | 123° |
| 2026-04-25 12:01 | 11.61732 | -85.28800 | 24087 ft | 428 kts | 123° |
| 2026-04-25 12:01 | 11.60068 | -85.26256 | 24465 ft | 432 kts | 123° |
| 2026-04-25 12:01 | 11.58391 | -85.23694 | 24825 ft | 436 kts | 123° |
| 2026-04-25 12:01 | 11.56723 | -85.21148 | 25193 ft | 439 kts | 123° |
| 2026-04-25 12:02 | 11.53303 | -85.15926 | 25967 ft | 445 kts | 123° |
| 2026-04-25 12:02 | 11.51583 | -85.13302 | 26362 ft | 448 kts | 123° |
| 2026-04-25 12:02 | 11.49848 | -85.10655 | 26761 ft | 451 kts | 123° |
| 2026-04-25 12:03 | 11.48096 | -85.07983 | 27116 ft | 454 kts | 123° |
| 2026-04-25 12:03 | 11.46332 | -85.05293 | 27478 ft | 457 kts | 123° |
| 2026-04-25 12:03 | 11.44556 | -85.02585 | 27835 ft | 461 kts | 123° |
| 2026-04-25 12:03 | 11.42792 | -84.99897 | 28192 ft | 464 kts | 123° |
| 2026-04-25 12:04 | 11.41001 | -84.97167 | 28541 ft | 467 kts | 123° |
| 2026-04-25 12:04 | 11.39189 | -84.94407 | 28891 ft | 470 kts | 124° |
| 2026-04-25 12:04 | 11.37358 | -84.91619 | 29243 ft | 474 kts | 124° |
| 2026-04-25 12:04 | 11.35510 | -84.88805 | 29598 ft | 477 kts | 124° |
| 2026-04-25 12:05 | 11.33653 | -84.85978 | 29943 ft | 480 kts | 124° |
| 2026-04-25 12:05 | 11.31786 | -84.83138 | 30274 ft | 483 kts | 124° |
| 2026-04-25 12:05 | 11.29940 | -84.80328 | 30628 ft | 486 kts | 124° |
| 2026-04-25 12:05 | 11.28050 | -84.77453 | 30988 ft | 488 kts | 124° |
| 2026-04-25 12:06 | 11.26150 | -84.74563 | 31344 ft | 491 kts | 124° |
| 2026-04-25 12:06 | 11.24239 | -84.71658 | 31697 ft | 493 kts | 124° |
| 2026-04-25 12:06 | 11.22324 | -84.68746 | 32041 ft | 496 kts | 124° |
| 2026-04-25 12:06 | 11.20889 | -84.66566 | 32310 ft | 497 kts | 124° |
| 2026-04-25 12:07 | 11.18963 | -84.63639 | 32622 ft | 500 kts | 124° |
| 2026-04-25 12:07 | 11.17019 | -84.60687 | 32882 ft | 502 kts | 125° |
| 2026-04-25 12:07 | 11.15070 | -84.57727 | 33095 ft | 503 kts | 125° |
| 2026-04-25 12:07 | 11.13114 | -84.54759 | 33309 ft | 505 kts | 125° |
| 2026-04-25 12:08 | 11.11152 | -84.51781 | 33511 ft | 506 kts | 125° |
| 2026-04-25 12:08 | 11.09187 | -84.48800 | 33740 ft | 506 kts | 125° |
| 2026-04-25 12:08 | 11.07254 | -84.45869 | 33992 ft | 505 kts | 125° |
| 2026-04-25 12:08 | 11.05292 | -84.42894 | 34226 ft | 504 kts | 125° |
| 2026-04-25 12:09 | 11.03341 | -84.39936 | 34450 ft | 503 kts | 125° |
| 2026-04-25 12:09 | 11.01388 | -84.36977 | 34686 ft | 502 kts | 125° |
| 2026-04-25 12:09 | 10.99437 | -84.34022 | 34933 ft | 501 kts | 125° |
| 2026-04-25 12:09 | 10.97495 | -84.31081 | 35164 ft | 501 kts | 125° |
| 2026-04-25 12:10 | 10.95552 | -84.28140 | 35408 ft | 500 kts | 125° |
| 2026-04-25 12:10 | 10.93605 | -84.25193 | 35665 ft | 499 kts | 125° |
| 2026-04-25 12:10 | 10.91669 | -84.22264 | 35924 ft | 498 kts | 125° |
| 2026-04-25 12:10 | 10.89759 | -84.19376 | 36169 ft | 497 kts | 126° |
| 2026-04-25 12:11 | 10.87829 | -84.16457 | 36418 ft | 496 kts | 126° |
| 2026-04-25 12:11 | 10.85900 | -84.13541 | 36676 ft | 495 kts | 126° |
| 2026-04-25 12:11 | 10.83983 | -84.10643 | 36906 ft | 495 kts | 126° |
| 2026-04-25 12:11 | 10.82083 | -84.07773 | 37149 ft | 494 kts | 126° |
| 2026-04-25 12:12 | 10.80162 | -84.04872 | 37389 ft | 493 kts | 126° |
| 2026-04-25 12:12 | 10.78890 | -84.02950 | 37540 ft | 493 kts | 126° |
| 2026-04-25 12:12 | 10.76327 | -83.99082 | 37864 ft | 492 kts | 126° |
| 2026-04-25 12:12 | 10.74416 | -83.96198 | 38092 ft | 491 kts | 126° |
| 2026-04-25 12:13 | 10.72532 | -83.93354 | 38327 ft | 491 kts | 126° |
| 2026-04-25 12:13 | 10.70619 | -83.90469 | 38545 ft | 490 kts | 126° |
| 2026-04-25 12:13 | 10.68714 | -83.87596 | 38746 ft | 490 kts | 126° |
| 2026-04-25 12:13 | 10.66808 | -83.84722 | 38902 ft | 490 kts | 126° |
| 2026-04-25 12:14 | 10.63020 | -83.79012 | 38927 ft | 488 kts | 126° |
| 2026-04-25 12:14 | 10.59215 | -83.73281 | 38923 ft | 489 kts | 126° |
| 2026-04-25 12:15 | 10.55407 | -83.67549 | 38926 ft | 488 kts | 126° |
| 2026-04-25 12:15 | 10.51616 | -83.61844 | 38926 ft | 488 kts | 126° |
| 2026-04-25 12:16 | 10.47833 | -83.56154 | 38925 ft | 487 kts | 126° |
| 2026-04-25 12:16 | 10.44038 | -83.50449 | 38923 ft | 486 kts | 126° |
| 2026-04-25 12:17 | 10.40252 | -83.44762 | 38923 ft | 486 kts | 126° |
| 2026-04-25 12:17 | 10.36494 | -83.39119 | 38925 ft | 485 kts | 126° |
| 2026-04-25 12:18 | 10.32702 | -83.33427 | 38925 ft | 484 kts | 126° |
| 2026-04-25 12:18 | 10.28966 | -83.27822 | 38924 ft | 483 kts | 126° |
| 2026-04-25 12:19 | 10.23312 | -83.19346 | 38923 ft | 482 kts | 126° |
| 2026-04-25 12:20 | 10.19550 | -83.13711 | 38922 ft | 482 kts | 126° |
| 2026-04-25 12:20 | 10.15816 | -83.08121 | 38919 ft | 482 kts | 125° |
| 2026-04-25 12:21 | 10.12052 | -83.02487 | 38917 ft | 482 kts | 125° |
| 2026-04-25 12:21 | 10.08286 | -82.96854 | 38918 ft | 482 kts | 125° |
| 2026-04-25 12:22 | 10.04532 | -82.91240 | 38919 ft | 482 kts | 125° |
| 2026-04-25 12:22 | 10.00783 | -82.85637 | 38915 ft | 482 kts | 125° |
| 2026-04-25 12:23 | 9.97013 | -82.80006 | 38921 ft | 482 kts | 125° |
| 2026-04-25 12:23 | 9.93252 | -82.74389 | 38920 ft | 482 kts | 125° |
| 2026-04-25 12:24 | 9.89487 | -82.68770 | 38919 ft | 481 kts | 125° |
| 2026-04-25 12:24 | 9.85738 | -82.63176 | 38923 ft | 481 kts | 125° |
| 2026-04-25 12:25 | 9.82178 | -82.57451 | 38923 ft | 482 kts | 118° |
| 2026-04-25 12:25 | 9.79574 | -82.51181 | 38921 ft | 482 kts | 109° |
| 2026-04-25 12:26 | 9.77374 | -82.44751 | 38918 ft | 482 kts | 110° |
| 2026-04-25 12:26 | 9.75172 | -82.38403 | 38917 ft | 482 kts | 110° |
| 2026-04-25 12:27 | 9.72940 | -82.31980 | 38916 ft | 482 kts | 110° |
| 2026-04-25 12:27 | 9.70711 | -82.25566 | 38922 ft | 482 kts | 110° |
| 2026-04-25 12:28 | 9.68482 | -82.19153 | 38921 ft | 482 kts | 110° |
| 2026-04-25 12:28 | 9.66251 | -82.12738 | 38919 ft | 482 kts | 110° |
| 2026-04-25 12:29 | 9.64032 | -82.06361 | 38918 ft | 482 kts | 110° |
| 2026-04-25 12:29 | 9.61806 | -81.99972 | 38922 ft | 482 kts | 110° |
| 2026-04-25 12:30 | 9.59573 | -81.93564 | 38923 ft | 481 kts | 110° |
| 2026-04-25 12:30 | 9.57353 | -81.87197 | 38921 ft | 481 kts | 110° |
| 2026-04-25 12:31 | 9.55129 | -81.80823 | 38923 ft | 481 kts | 110° |
| 2026-04-25 12:31 | 9.52895 | -81.74427 | 38920 ft | 481 kts | 110° |
| 2026-04-25 12:32 | 9.50662 | -81.68036 | 38920 ft | 481 kts | 110° |
| 2026-04-25 12:32 | 9.48813 | -81.62745 | 38918 ft | 481 kts | 110° |
| 2026-04-25 12:33 | 9.46578 | -81.56356 | 38921 ft | 481 kts | 110° |
| 2026-04-25 12:33 | 9.44341 | -81.49965 | 38922 ft | 481 kts | 110° |
| 2026-04-25 12:34 | 9.42108 | -81.43591 | 38925 ft | 480 kts | 110° |
| 2026-04-25 12:34 | 9.39887 | -81.37256 | 38922 ft | 480 kts | 110° |
| 2026-04-25 12:35 | 9.37648 | -81.30870 | 38925 ft | 480 kts | 110° |
| 2026-04-25 12:35 | 9.35410 | -81.24495 | 38922 ft | 480 kts | 110° |
| 2026-04-25 12:36 | 9.33170 | -81.18114 | 38716 ft | 480 kts | 110° |
| 2026-04-25 12:36 | 9.32065 | -81.14970 | 38433 ft | 479 kts | 111° |
| 2026-04-25 12:36 | 9.30949 | -81.11795 | 37766 ft | 480 kts | 111° |
| 2026-04-25 12:36 | 9.29827 | -81.08610 | 36758 ft | 483 kts | 110° |
| 2026-04-25 12:37 | 9.28691 | -81.05383 | 35510 ft | 489 kts | 110° |
| 2026-04-25 12:37 | 9.27538 | -81.02112 | 34088 ft | 495 kts | 110° |
| 2026-04-25 12:37 | 9.26375 | -80.98806 | 32421 ft | 501 kts | 109° |
| 2026-04-25 12:37 | 9.25220 | -80.95437 | 30843 ft | 508 kts | 108° |
| 2026-04-25 12:38 | 9.24079 | -80.92050 | 29550 ft | 508 kts | 108° |
| 2026-04-25 12:38 | 9.22967 | -80.88735 | 28460 ft | 504 kts | 108° |
| 2026-04-25 12:38 | 9.21844 | -80.85398 | 27663 ft | 496 kts | 108° |
| 2026-04-25 12:38 | 9.20741 | -80.82132 | 27148 ft | 483 kts | 108° |
| 2026-04-25 12:39 | 9.19670 | -80.78971 | 26876 ft | 467 kts | 108° |
| 2026-04-25 12:39 | 9.18622 | -80.75882 | 26627 ft | 462 kts | 108° |
| 2026-04-25 12:39 | 9.17575 | -80.72796 | 26062 ft | 464 kts | 108° |
| 2026-04-25 12:39 | 9.16525 | -80.69698 | 25177 ft | 467 kts | 108° |
| 2026-04-25 12:40 | 9.15468 | -80.66584 | 24441 ft | 465 kts | 108° |
| 2026-04-25 12:40 | 9.14420 | -80.63499 | 23695 ft | 460 kts | 108° |
| 2026-04-25 12:40 | 9.13395 | -80.60483 | 22882 ft | 455 kts | 108° |
| 2026-04-25 12:40 | 9.12377 | -80.57489 | 22166 ft | 446 kts | 109° |
| 2026-04-25 12:41 | 9.11377 | -80.54547 | 21409 ft | 439 kts | 109° |
| 2026-04-25 12:41 | 9.10395 | -80.51661 | 20795 ft | 429 kts | 109° |
| 2026-04-25 12:41 | 9.09444 | -80.48866 | 20579 ft | 409 kts | 109° |
| 2026-04-25 12:41 | 9.08536 | -80.46198 | 20391 ft | 390 kts | 109° |
| 2026-04-25 12:42 | 9.07680 | -80.43687 | 20163 ft | 365 kts | 109° |
| 2026-04-25 12:42 | 9.07141 | -80.42103 | 19815 ft | 356 kts | 109° |
| 2026-04-25 12:42 | 9.06141 | -80.38996 | 19383 ft | 343 kts | 104° |
| 2026-04-25 12:42 | 9.05678 | -80.36643 | 19017 ft | 341 kts | 100° |
| 2026-04-25 12:43 | 9.05252 | -80.34289 | 18539 ft | 339 kts | 101° |
| 2026-04-25 12:43 | 9.04826 | -80.31964 | 18098 ft | 333 kts | 101° |
| 2026-04-25 12:43 | 9.03979 | -80.27434 | 17241 ft | 320 kts | 101° |
| 2026-04-25 12:44 | 9.03568 | -80.25250 | 16630 ft | 321 kts | 101° |
| 2026-04-25 12:44 | 9.03157 | -80.23071 | 16332 ft | 320 kts | 101° |
| 2026-04-25 12:44 | 9.02284 | -80.18442 | 15688 ft | 337 kts | 101° |
| 2026-04-25 12:45 | 9.01851 | -80.16137 | 15388 ft | 330 kts | 101° |
| 2026-04-25 12:45 | 9.01422 | -80.13863 | 14856 ft | 327 kts | 101° |
| 2026-04-25 12:45 | 9.00588 | -80.09431 | 13754 ft | 320 kts | 100° |
| 2026-04-25 12:46 | 9.00175 | -80.07242 | 13306 ft | 312 kts | 100° |
| 2026-04-25 12:46 | 8.99775 | -80.05125 | 12969 ft | 303 kts | 100° |
| 2026-04-25 12:46 | 8.99384 | -80.03054 | 12573 ft | 295 kts | 100° |
| 2026-04-25 12:46 | 8.99007 | -80.01057 | 12247 ft | 283 kts | 100° |
| 2026-04-25 12:47 | 8.98639 | -79.99111 | 11874 ft | 290 kts | 100° |
| 2026-04-25 12:47 | 8.98244 | -79.97014 | 11473 ft | 321 kts | 100° |
| 2026-04-25 12:47 | 8.97834 | -79.94848 | 11202 ft | 304 kts | 100° |
| 2026-04-25 12:47 | 8.97438 | -79.92765 | 10460 ft | 299 kts | 100° |
| 2026-04-25 12:48 | 8.97048 | -79.90704 | 9858 ft | 297 kts | 100° |
| 2026-04-25 12:48 | 8.96662 | -79.88660 | 9224 ft | 294 kts | 100° |
| 2026-04-25 12:48 | 8.96282 | -79.86641 | 8573 ft | 290 kts | 100° |
| 2026-04-25 12:48 | 8.95908 | -79.84655 | 7943 ft | 287 kts | 100° |
| 2026-04-25 12:49 | 8.95536 | -79.82681 | 7315 ft | 284 kts | 100° |
| 2026-04-25 12:49 | 8.95167 | -79.80729 | 6685 ft | 281 kts | 101° |
| 2026-04-25 12:49 | 8.94801 | -79.78795 | 6050 ft | 278 kts | 101° |
| 2026-04-25 12:49 | 8.94444 | -79.76907 | 5380 ft | 276 kts | 101° |
| 2026-04-25 12:50 | 8.94083 | -79.75007 | 4714 ft | 273 kts | 101° |
| 2026-04-25 12:50 | 8.93732 | -79.73151 | 4266 ft | 268 kts | 101° |
| 2026-04-25 12:50 | 8.93379 | -79.71295 | 4107 ft | 261 kts | 101° |
| 2026-04-25 12:50 | 8.93050 | -79.69558 | 4076 ft | 249 kts | 101° |
| 2026-04-25 12:51 | 8.92721 | -79.67822 | 4073 ft | 251 kts | 101° |
| 2026-04-25 12:51 | 8.92393 | -79.66092 | 4072 ft | 250 kts | 101° |
| 2026-04-25 12:51 | 8.92063 | -79.64361 | 4072 ft | 250 kts | 102° |
| 2026-04-25 12:51 | 8.91739 | -79.62666 | 4073 ft | 250 kts | 101° |
| 2026-04-25 12:52 | 8.91412 | -79.60936 | 4072 ft | 250 kts | 101° |
| 2026-04-25 12:52 | 8.91085 | -79.59208 | 4072 ft | 250 kts | 102° |
| 2026-04-25 12:52 | 8.90757 | -79.57483 | 4077 ft | 250 kts | 102° |
| 2026-04-25 12:52 | 8.90430 | -79.55754 | 4070 ft | 250 kts | 102° |
| 2026-04-25 12:53 | 8.90103 | -79.54026 | 4078 ft | 251 kts | 102° |
| 2026-04-25 12:53 | 8.89778 | -79.52313 | 4002 ft | 248 kts | 102° |
| 2026-04-25 12:53 | 8.89455 | -79.50607 | 3726 ft | 246 kts | 102° |
| 2026-04-25 12:53 | 8.89444 | -79.48892 | 3307 ft | 242 kts | 77° |
| 2026-04-25 12:54 | 8.90264 | -79.47514 | 3164 ft | 228 kts | 42° |
| 2026-04-25 12:54 | 8.91587 | -79.46661 | 2899 ft | 224 kts | 27° |
| 2026-04-25 12:54 | 8.92971 | -79.45959 | 2633 ft | 222 kts | 27° |
| 2026-04-25 12:54 | 8.94320 | -79.45234 | 2346 ft | 220 kts | 29° |
| 2026-04-25 12:55 | 8.95634 | -79.44474 | 2067 ft | 215 kts | 29° |
| 2026-04-25 12:55 | 8.96486 | -79.43994 | 1874 ft | 207 kts | 30° |
| 2026-04-25 12:55 | 8.98089 | -79.43074 | 1516 ft | 189 kts | 29° |
| 2026-04-25 12:55 | 8.99185 | -79.42448 | 1279 ft | 178 kts | 30° |
| 2026-04-25 12:56 | 9.00269 | -79.41829 | 1069 ft | 180 kts | 30° |
| 2026-04-25 12:56 | 9.01325 | -79.41225 | 831 ft | 168 kts | 30° |
| 2026-04-25 12:56 | 9.02309 | -79.40663 | 634 ft | 156 kts | 31° |
| 2026-04-25 12:56 | 9.03225 | -79.40137 | 412 ft | 146 kts | 30° |
| 2026-04-25 12:57 | 9.04129 | -79.39622 | 250 ft | 148 kts | 30° |
| 2026-04-25 12:57 | 9.05015 | -79.39117 | 169 ft | 148 kts | 29° |
| 2026-04-25 12:57 | 9.05843 | -79.38647 | 154 ft | 113 kts | 29° |
| 2026-04-25 12:57 | 9.06355 | -79.38354 | 149 ft | 55 kts | 30° |
| 2026-04-25 12:58 | 9.06546 | -79.38243 | 149 ft | 25 kts | 30° |
| 2026-04-25 12:58 | 9.06703 | -79.38150 | 148 ft | 27 kts | 30° |
| 2026-04-25 12:58 | 9.06867 | -79.38056 | 149 ft | 27 kts | 28° |
| 2026-04-25 12:58 | 9.07036 | -79.37963 | 149 ft | 28 kts | 29° |
| 2026-04-25 12:59 | 9.07132 | -79.37928 | 149 ft | 12 kts | 353° |
| 2026-04-25 12:59 | 9.07188 | -79.37990 | 150 ft | 14 kts | 298° |
| 2026-04-25 12:59 | 9.07169 | -79.38076 | 150 ft | 14 kts | 221° |
| 2026-04-25 12:59 | 9.07075 | -79.38133 | 150 ft | 17 kts | 211° |
| 2026-04-25 13:00 | 9.06963 | -79.38196 | 149 ft | 20 kts | 208° |
| 2026-04-25 13:00 | 9.06921 | -79.38219 | 149 ft | 21 kts | 208° |
| 2026-04-25 13:00 | 9.06690 | -79.38346 | 149 ft | 24 kts | 208° |
| 2026-04-25 13:00 | 9.06535 | -79.38427 | 149 ft | 26 kts | 206° |
| 2026-04-25 13:01 | 9.06372 | -79.38521 | 150 ft | 28 kts | 211° |
| 2026-04-25 13:01 | 9.06264 | -79.38601 | 150 ft | 12 kts | 244° |
| 2026-04-25 13:01 | 9.06257 | -79.38695 | 150 ft | 15 kts | 265° |
| 2026-04-25 13:01 | 9.06251 | -79.38809 | 150 ft | 16 kts | 275° |
| 2026-04-25 13:02 | 9.06256 | -79.38870 | 150 ft | 0 kts | 274° |
| 2026-04-25 13:02 | 9.06256 | -79.38871 | 150 ft | 0 kts | 274° |